sensor_id;sensor_type;location;lat;lon;timestamp;P1;durP1;ratioP1;P2;durP2;ratioP2
58784;SDS011;44557;51.862;19.378;2022-07-18T00:00:06;8.60;;;3.20;;
58784;SDS011;44557;51.862;19.378;2022-07-18T00:01:29;6.60;;;2.80;;
58784;SDS011;44557;51.862;19.378;2022-07-18T00:02:33;6.50;;;2.60;;
58784;SDS011;44557;51.862;19.378;2022-07-18T00:03:34;7.40;;;2.80;;
58784;SDS011;44557;51.862;19.378;2022-07-18T00:04:36;5.80;;;2.70;;
58784;SDS011;44557;51.862;19.378;2022-07-18T00:05:37;6.00;;;2.90;;
58784;SDS011;44557;51.862;19.378;2022-07-18T00:06:38;4.80;;;2.60;;
58784;SDS011;44557;51.862;19.378;2022-07-18T00:07:40;4.60;;;2.50;;
58784;SDS011;44557;51.862;19.378;2022-07-18T00:08:42;6.80;;;2.90;;
58784;SDS011;44557;51.862;19.378;2022-07-18T00:09:43;6.90;;;3.10;;
58784;SDS011;44557;51.862;19.378;2022-07-18T00:10:45;5.80;;;2.80;;
58784;SDS011;44557;51.862;19.378;2022-07-18T00:11:47;6.10;;;2.90;;
58784;SDS011;44557;51.862;19.378;2022-07-18T00:12:50;6.10;;;3.20;;
58784;SDS011;44557;51.862;19.378;2022-07-18T00:13:51;7.20;;;3.00;;
58784;SDS011;44557;51.862;19.378;2022-07-18T00:14:53;6.40;;;3.00;;
58784;SDS011;44557;51.862;19.378;2022-07-18T00:15:54;6.00;;;2.70;;
58784;SDS011;44557;51.862;19.378;2022-07-18T00:16:56;5.60;;;2.70;;
58784;SDS011;44557;51.862;19.378;2022-07-18T00:17:59;6.50;;;3.10;;
58784;SDS011;44557;51.862;19.378;2022-07-18T00:19:00;6.50;;;2.90;;
58784;SDS011;44557;51.862;19.378;2022-07-18T00:20:07;5.30;;;2.50;;
58784;SDS011;44557;51.862;19.378;2022-07-18T00:21:10;8.10;;;2.90;;
58784;SDS011;44557;51.862;19.378;2022-07-18T00:22:12;5.70;;;2.50;;
58784;SDS011;44557;51.862;19.378;2022-07-18T00:23:14;6.70;;;2.90;;
58784;SDS011;44557;51.862;19.378;2022-07-18T00:24:15;5.10;;;2.40;;
58784;SDS011;44557;51.862;19.378;2022-07-18T00:25:17;5.30;;;2.70;;
58784;SDS011;44557;51.862;19.378;2022-07-18T00:26:19;5.50;;;2.60;;
58784;SDS011;44557;51.862;19.378;2022-07-18T00:27:20;7.30;;;2.70;;
58784;SDS011;44557;51.862;19.378;2022-07-18T00:28:22;7.50;;;3.10;;
58784;SDS011;44557;51.862;19.378;2022-07-18T00:29:23;7.70;;;2.80;;
58784;SDS011;44557;51.862;19.378;2022-07-18T00:30:26;7.10;;;2.80;;
58784;SDS011;44557;51.862;19.378;2022-07-18T00:31:27;6.60;;;2.80;;
58784;SDS011;44557;51.862;19.378;2022-07-18T00:32:29;5.10;;;2.70;;
58784;SDS011;44557;51.862;19.378;2022-07-18T00:33:30;6.00;;;2.60;;
58784;SDS011;44557;51.862;19.378;2022-07-18T00:34:32;6.60;;;2.80;;
58784;SDS011;44557;51.862;19.378;2022-07-18T00:35:34;7.00;;;2.40;;
58784;SDS011;44557;51.862;19.378;2022-07-18T00:36:36;6.30;;;3.00;;
58784;SDS011;44557;51.862;19.378;2022-07-18T00:37:38;6.40;;;2.90;;
58784;SDS011;44557;51.862;19.378;2022-07-18T00:38:39;6.50;;;2.70;;
58784;SDS011;44557;51.862;19.378;2022-07-18T00:39:41;5.50;;;2.80;;
58784;SDS011;44557;51.862;19.378;2022-07-18T00:40:42;7.20;;;3.00;;
58784;SDS011;44557;51.862;19.378;2022-07-18T00:41:45;7.40;;;2.90;;
58784;SDS011;44557;51.862;19.378;2022-07-18T00:42:49;6.20;;;2.70;;
58784;SDS011;44557;51.862;19.378;2022-07-18T00:43:51;6.20;;;2.60;;
58784;SDS011;44557;51.862;19.378;2022-07-18T00:44:54;6.90;;;3.30;;
58784;SDS011;44557;51.862;19.378;2022-07-18T00:45:56;7.50;;;2.80;;
58784;SDS011;44557;51.862;19.378;2022-07-18T00:46:59;5.50;;;2.40;;
58784;SDS011;44557;51.862;19.378;2022-07-18T00:48:06;5.10;;;2.40;;
58784;SDS011;44557;51.862;19.378;2022-07-18T00:49:08;8.20;;;2.80;;
58784;SDS011;44557;51.862;19.378;2022-07-18T00:50:10;7.50;;;2.80;;
58784;SDS011;44557;51.862;19.378;2022-07-18T00:51:12;6.50;;;2.80;;
58784;SDS011;44557;51.862;19.378;2022-07-18T00:52:13;8.00;;;3.00;;
58784;SDS011;44557;51.862;19.378;2022-07-18T00:53:15;6.50;;;2.80;;
58784;SDS011;44557;51.862;19.378;2022-07-18T00:54:17;6.60;;;2.70;;
58784;SDS011;44557;51.862;19.378;2022-07-18T00:55:20;6.00;;;2.80;;
58784;SDS011;44557;51.862;19.378;2022-07-18T00:56:21;8.40;;;3.10;;
58784;SDS011;44557;51.862;19.378;2022-07-18T00:57:23;6.30;;;3.00;;
58784;SDS011;44557;51.862;19.378;2022-07-18T00:58:25;5.70;;;2.40;;
58784;SDS011;44557;51.862;19.378;2022-07-18T00:59:26;9.30;;;3.20;;
58784;SDS011;44557;51.862;19.378;2022-07-18T01:00:49;6.70;;;2.80;;
58784;SDS011;44557;51.862;19.378;2022-07-18T01:02:09;6.80;;;3.00;;
58784;SDS011;44557;51.862;19.378;2022-07-18T01:03:11;5.60;;;2.50;;
58784;SDS011;44557;51.862;19.378;2022-07-18T01:04:21;7.00;;;2.70;;
58784;SDS011;44557;51.862;19.378;2022-07-18T01:05:24;7.30;;;2.80;;
58784;SDS011;44557;51.862;19.378;2022-07-18T01:06:26;6.20;;;2.60;;
58784;SDS011;44557;51.862;19.378;2022-07-18T01:07:27;6.50;;;2.90;;
58784;SDS011;44557;51.862;19.378;2022-07-18T01:08:29;7.30;;;2.90;;
58784;SDS011;44557;51.862;19.378;2022-07-18T01:09:31;6.30;;;2.70;;
58784;SDS011;44557;51.862;19.378;2022-07-18T01:10:33;6.70;;;2.90;;
58784;SDS011;44557;51.862;19.378;2022-07-18T01:11:35;8.00;;;2.80;;
58784;SDS011;44557;51.862;19.378;2022-07-18T01:12:37;6.70;;;2.80;;
58784;SDS011;44557;51.862;19.378;2022-07-18T01:13:38;6.40;;;2.70;;
58784;SDS011;44557;51.862;19.378;2022-07-18T01:14:40;7.40;;;3.00;;
58784;SDS011;44557;51.862;19.378;2022-07-18T01:15:42;6.30;;;2.50;;
58784;SDS011;44557;51.862;19.378;2022-07-18T01:16:43;7.30;;;3.00;;
58784;SDS011;44557;51.862;19.378;2022-07-18T01:17:45;6.90;;;3.00;;
58784;SDS011;44557;51.862;19.378;2022-07-18T01:18:47;6.90;;;3.10;;
58784;SDS011;44557;51.862;19.378;2022-07-18T01:19:51;6.60;;;3.20;;
58784;SDS011;44557;51.862;19.378;2022-07-18T01:20:53;7.60;;;2.90;;
58784;SDS011;44557;51.862;19.378;2022-07-18T01:21:55;6.90;;;2.80;;
58784;SDS011;44557;51.862;19.378;2022-07-18T01:22:58;7.00;;;3.00;;
58784;SDS011;44557;51.862;19.378;2022-07-18T01:24:01;7.40;;;3.10;;
58784;SDS011;44557;51.862;19.378;2022-07-18T01:25:02;6.60;;;3.00;;
58784;SDS011;44557;51.862;19.378;2022-07-18T01:26:04;6.40;;;2.60;;
58784;SDS011;44557;51.862;19.378;2022-07-18T01:27:07;6.00;;;2.80;;
58784;SDS011;44557;51.862;19.378;2022-07-18T01:28:09;6.80;;;2.80;;
58784;SDS011;44557;51.862;19.378;2022-07-18T01:29:10;6.40;;;2.90;;
58784;SDS011;44557;51.862;19.378;2022-07-18T01:30:13;6.30;;;3.30;;
58784;SDS011;44557;51.862;19.378;2022-07-18T01:31:15;6.10;;;2.80;;
58784;SDS011;44557;51.862;19.378;2022-07-18T01:32:17;4.00;;;2.40;;
58784;SDS011;44557;51.862;19.378;2022-07-18T01:33:20;6.30;;;2.60;;
58784;SDS011;44557;51.862;19.378;2022-07-18T01:34:22;5.00;;;2.50;;
58784;SDS011;44557;51.862;19.378;2022-07-18T01:35:25;5.30;;;2.70;;
58784;SDS011;44557;51.862;19.378;2022-07-18T01:36:28;6.40;;;3.10;;
58784;SDS011;44557;51.862;19.378;2022-07-18T01:37:30;6.50;;;2.60;;
58784;SDS011;44557;51.862;19.378;2022-07-18T01:38:34;5.40;;;2.50;;
58784;SDS011;44557;51.862;19.378;2022-07-18T01:39:36;5.60;;;2.70;;
58784;SDS011;44557;51.862;19.378;2022-07-18T01:40:37;6.90;;;2.90;;
58784;SDS011;44557;51.862;19.378;2022-07-18T01:41:39;5.50;;;2.60;;
58784;SDS011;44557;51.862;19.378;2022-07-18T01:42:42;5.50;;;2.40;;
58784;SDS011;44557;51.862;19.378;2022-07-18T01:43:43;6.00;;;2.60;;
58784;SDS011;44557;51.862;19.378;2022-07-18T01:44:45;6.20;;;2.70;;
58784;SDS011;44557;51.862;19.378;2022-07-18T01:45:47;5.80;;;2.60;;
58784;SDS011;44557;51.862;19.378;2022-07-18T01:46:49;6.30;;;3.00;;
58784;SDS011;44557;51.862;19.378;2022-07-18T01:47:51;7.20;;;3.10;;
58784;SDS011;44557;51.862;19.378;2022-07-18T01:48:52;4.70;;;2.60;;
58784;SDS011;44557;51.862;19.378;2022-07-18T01:49:54;6.20;;;2.70;;
58784;SDS011;44557;51.862;19.378;2022-07-18T01:50:55;6.40;;;2.90;;
58784;SDS011;44557;51.862;19.378;2022-07-18T01:51:57;7.30;;;2.40;;
58784;SDS011;44557;51.862;19.378;2022-07-18T01:53:00;5.20;;;2.70;;
58784;SDS011;44557;51.862;19.378;2022-07-18T01:54:02;5.20;;;2.60;;
58784;SDS011;44557;51.862;19.378;2022-07-18T01:55:04;7.50;;;2.90;;
58784;SDS011;44557;51.862;19.378;2022-07-18T01:56:11;5.60;;;2.70;;
58784;SDS011;44557;51.862;19.378;2022-07-18T01:57:13;4.50;;;2.40;;
58784;SDS011;44557;51.862;19.378;2022-07-18T01:58:15;5.50;;;2.30;;
58784;SDS011;44557;51.862;19.378;2022-07-18T01:59:16;6.40;;;2.60;;
58784;SDS011;44557;51.862;19.378;2022-07-18T02:00:18;6.30;;;2.90;;
58784;SDS011;44557;51.862;19.378;2022-07-18T02:01:20;7.00;;;2.30;;
58784;SDS011;44557;51.862;19.378;2022-07-18T02:02:21;5.70;;;2.80;;
58784;SDS011;44557;51.862;19.378;2022-07-18T02:03:23;7.40;;;2.50;;
58784;SDS011;44557;51.862;19.378;2022-07-18T02:04:25;6.50;;;2.20;;
58784;SDS011;44557;51.862;19.378;2022-07-18T02:05:46;7.30;;;2.60;;
58784;SDS011;44557;51.862;19.378;2022-07-18T02:06:48;6.40;;;2.50;;
58784;SDS011;44557;51.862;19.378;2022-07-18T02:07:49;5.40;;;2.30;;
58784;SDS011;44557;51.862;19.378;2022-07-18T02:08:51;7.80;;;2.30;;
58784;SDS011;44557;51.862;19.378;2022-07-18T02:09:52;6.40;;;2.60;;
58784;SDS011;44557;51.862;19.378;2022-07-18T02:10:54;6.70;;;2.50;;
58784;SDS011;44557;51.862;19.378;2022-07-18T02:11:55;5.40;;;2.50;;
58784;SDS011;44557;51.862;19.378;2022-07-18T02:12:57;5.20;;;2.60;;
58784;SDS011;44557;51.862;19.378;2022-07-18T02:13:59;5.90;;;2.40;;
58784;SDS011;44557;51.862;19.378;2022-07-18T02:15:01;5.60;;;2.50;;
58784;SDS011;44557;51.862;19.378;2022-07-18T02:16:03;6.50;;;2.90;;
58784;SDS011;44557;51.862;19.378;2022-07-18T02:17:04;6.70;;;2.50;;
58784;SDS011;44557;51.862;19.378;2022-07-18T02:18:06;5.80;;;2.90;;
58784;SDS011;44557;51.862;19.378;2022-07-18T02:19:07;6.00;;;2.60;;
58784;SDS011;44557;51.862;19.378;2022-07-18T02:20:10;5.00;;;2.40;;
58784;SDS011;44557;51.862;19.378;2022-07-18T02:21:13;6.60;;;2.60;;
58784;SDS011;44557;51.862;19.378;2022-07-18T02:22:15;6.10;;;2.50;;
58784;SDS011;44557;51.862;19.378;2022-07-18T02:23:16;5.80;;;2.80;;
58784;SDS011;44557;51.862;19.378;2022-07-18T02:24:18;6.20;;;2.60;;
58784;SDS011;44557;51.862;19.378;2022-07-18T02:25:19;6.20;;;2.90;;
58784;SDS011;44557;51.862;19.378;2022-07-18T02:26:22;5.70;;;2.90;;
58784;SDS011;44557;51.862;19.378;2022-07-18T02:27:23;5.50;;;2.70;;
58784;SDS011;44557;51.862;19.378;2022-07-18T02:28:25;7.30;;;2.90;;
58784;SDS011;44557;51.862;19.378;2022-07-18T02:29:27;6.00;;;2.60;;
58784;SDS011;44557;51.862;19.378;2022-07-18T02:30:29;5.20;;;2.60;;
58784;SDS011;44557;51.862;19.378;2022-07-18T02:31:30;5.00;;;2.70;;
58784;SDS011;44557;51.862;19.378;2022-07-18T02:32:32;5.90;;;2.50;;
58784;SDS011;44557;51.862;19.378;2022-07-18T02:33:33;6.50;;;2.70;;
58784;SDS011;44557;51.862;19.378;2022-07-18T02:34:35;6.90;;;2.90;;
58784;SDS011;44557;51.862;19.378;2022-07-18T02:35:36;6.10;;;2.60;;
58784;SDS011;44557;51.862;19.378;2022-07-18T02:36:38;7.10;;;2.80;;
58784;SDS011;44557;51.862;19.378;2022-07-18T02:37:41;7.60;;;2.80;;
58784;SDS011;44557;51.862;19.378;2022-07-18T02:38:42;6.50;;;2.70;;
58784;SDS011;44557;51.862;19.378;2022-07-18T02:39:44;5.30;;;2.60;;
58784;SDS011;44557;51.862;19.378;2022-07-18T02:40:45;6.90;;;2.60;;
58784;SDS011;44557;51.862;19.378;2022-07-18T02:41:47;5.50;;;3.10;;
58784;SDS011;44557;51.862;19.378;2022-07-18T02:42:49;5.70;;;2.70;;
58784;SDS011;44557;51.862;19.378;2022-07-18T02:43:50;6.00;;;2.50;;
58784;SDS011;44557;51.862;19.378;2022-07-18T02:44:52;6.10;;;2.70;;
58784;SDS011;44557;51.862;19.378;2022-07-18T02:45:53;6.30;;;2.50;;
58784;SDS011;44557;51.862;19.378;2022-07-18T02:46:55;6.30;;;2.80;;
58784;SDS011;44557;51.862;19.378;2022-07-18T02:47:57;7.00;;;3.30;;
58784;SDS011;44557;51.862;19.378;2022-07-18T02:48:58;6.30;;;3.70;;
58784;SDS011;44557;51.862;19.378;2022-07-18T02:50:01;6.20;;;3.50;;
58784;SDS011;44557;51.862;19.378;2022-07-18T02:51:02;6.20;;;3.00;;
58784;SDS011;44557;51.862;19.378;2022-07-18T02:52:05;5.60;;;2.80;;
58784;SDS011;44557;51.862;19.378;2022-07-18T02:53:08;6.10;;;2.80;;
58784;SDS011;44557;51.862;19.378;2022-07-18T02:54:09;6.50;;;2.90;;
58784;SDS011;44557;51.862;19.378;2022-07-18T02:55:12;6.60;;;2.90;;
58784;SDS011;44557;51.862;19.378;2022-07-18T02:56:14;6.30;;;3.20;;
58784;SDS011;44557;51.862;19.378;2022-07-18T02:57:16;5.90;;;3.10;;
58784;SDS011;44557;51.862;19.378;2022-07-18T02:58:18;6.80;;;3.10;;
58784;SDS011;44557;51.862;19.378;2022-07-18T02:59:20;6.00;;;2.80;;
58784;SDS011;44557;51.862;19.378;2022-07-18T03:00:22;6.30;;;2.60;;
58784;SDS011;44557;51.862;19.378;2022-07-18T03:01:23;6.10;;;2.90;;
58784;SDS011;44557;51.862;19.378;2022-07-18T03:02:25;7.20;;;2.70;;
58784;SDS011;44557;51.862;19.378;2022-07-18T03:03:27;7.60;;;2.70;;
58784;SDS011;44557;51.862;19.378;2022-07-18T03:04:28;7.20;;;3.30;;
58784;SDS011;44557;51.862;19.378;2022-07-18T03:05:30;6.60;;;2.90;;
58784;SDS011;44557;51.862;19.378;2022-07-18T03:06:31;5.90;;;2.50;;
58784;SDS011;44557;51.862;19.378;2022-07-18T03:07:33;7.30;;;3.00;;
58784;SDS011;44557;51.862;19.378;2022-07-18T03:08:34;9.30;;;3.10;;
58784;SDS011;44557;51.862;19.378;2022-07-18T03:09:36;5.60;;;3.00;;
58784;SDS011;44557;51.862;19.378;2022-07-18T03:10:38;4.20;;;2.50;;
58784;SDS011;44557;51.862;19.378;2022-07-18T03:11:39;6.10;;;2.60;;
58784;SDS011;44557;51.862;19.378;2022-07-18T03:12:41;6.80;;;2.70;;
58784;SDS011;44557;51.862;19.378;2022-07-18T03:13:43;6.00;;;2.50;;
58784;SDS011;44557;51.862;19.378;2022-07-18T03:14:45;4.80;;;2.40;;
58784;SDS011;44557;51.862;19.378;2022-07-18T03:15:46;4.80;;;2.50;;
58784;SDS011;44557;51.862;19.378;2022-07-18T03:16:48;6.80;;;2.80;;
58784;SDS011;44557;51.862;19.378;2022-07-18T03:17:50;5.80;;;2.70;;
58784;SDS011;44557;51.862;19.378;2022-07-18T03:18:51;7.10;;;2.90;;
58784;SDS011;44557;51.862;19.378;2022-07-18T03:19:53;6.60;;;2.50;;
58784;SDS011;44557;51.862;19.378;2022-07-18T03:20:55;6.00;;;3.00;;
58784;SDS011;44557;51.862;19.378;2022-07-18T03:21:56;6.00;;;3.10;;
58784;SDS011;44557;51.862;19.378;2022-07-18T03:22:58;5.80;;;2.50;;
58784;SDS011;44557;51.862;19.378;2022-07-18T03:23:59;6.00;;;2.70;;
58784;SDS011;44557;51.862;19.378;2022-07-18T03:25:01;8.70;;;3.00;;
58784;SDS011;44557;51.862;19.378;2022-07-18T03:26:03;5.40;;;2.70;;
58784;SDS011;44557;51.862;19.378;2022-07-18T03:27:04;5.60;;;2.60;;
58784;SDS011;44557;51.862;19.378;2022-07-18T03:28:06;4.50;;;2.50;;
58784;SDS011;44557;51.862;19.378;2022-07-18T03:29:07;6.30;;;2.80;;
58784;SDS011;44557;51.862;19.378;2022-07-18T03:30:10;4.70;;;2.50;;
58784;SDS011;44557;51.862;19.378;2022-07-18T03:31:12;5.10;;;2.40;;
58784;SDS011;44557;51.862;19.378;2022-07-18T03:32:14;7.20;;;3.00;;
58784;SDS011;44557;51.862;19.378;2022-07-18T03:33:15;7.70;;;3.20;;
58784;SDS011;44557;51.862;19.378;2022-07-18T03:34:17;5.70;;;2.60;;
58784;SDS011;44557;51.862;19.378;2022-07-18T03:35:19;7.40;;;2.90;;
58784;SDS011;44557;51.862;19.378;2022-07-18T03:36:21;6.00;;;2.80;;
58784;SDS011;44557;51.862;19.378;2022-07-18T03:37:22;7.90;;;3.40;;
58784;SDS011;44557;51.862;19.378;2022-07-18T03:38:24;6.40;;;3.40;;
58784;SDS011;44557;51.862;19.378;2022-07-18T03:39:26;5.00;;;2.70;;
58784;SDS011;44557;51.862;19.378;2022-07-18T03:40:27;6.70;;;2.90;;
58784;SDS011;44557;51.862;19.378;2022-07-18T03:41:29;7.70;;;2.90;;
58784;SDS011;44557;51.862;19.378;2022-07-18T03:42:30;5.90;;;2.70;;
58784;SDS011;44557;51.862;19.378;2022-07-18T03:43:32;5.30;;;2.70;;
58784;SDS011;44557;51.862;19.378;2022-07-18T03:44:33;6.70;;;2.80;;
58784;SDS011;44557;51.862;19.378;2022-07-18T03:45:35;8.10;;;3.20;;
58784;SDS011;44557;51.862;19.378;2022-07-18T03:46:36;6.00;;;3.00;;
58784;SDS011;44557;51.862;19.378;2022-07-18T03:47:38;8.10;;;3.20;;
58784;SDS011;44557;51.862;19.378;2022-07-18T03:48:40;8.20;;;3.40;;
58784;SDS011;44557;51.862;19.378;2022-07-18T03:49:42;7.20;;;3.20;;
58784;SDS011;44557;51.862;19.378;2022-07-18T03:50:43;5.40;;;2.90;;
58784;SDS011;44557;51.862;19.378;2022-07-18T03:51:45;7.50;;;3.80;;
58784;SDS011;44557;51.862;19.378;2022-07-18T03:52:46;7.10;;;3.10;;
58784;SDS011;44557;51.862;19.378;2022-07-18T03:53:48;7.20;;;3.20;;
58784;SDS011;44557;51.862;19.378;2022-07-18T03:54:49;6.70;;;3.10;;
58784;SDS011;44557;51.862;19.378;2022-07-18T03:55:51;8.60;;;3.30;;
58784;SDS011;44557;51.862;19.378;2022-07-18T03:56:53;6.10;;;3.10;;
58784;SDS011;44557;51.862;19.378;2022-07-18T03:57:54;6.90;;;3.20;;
58784;SDS011;44557;51.862;19.378;2022-07-18T03:58:56;8.40;;;3.70;;
58784;SDS011;44557;51.862;19.378;2022-07-18T03:59:57;7.60;;;3.30;;
58784;SDS011;44557;51.862;19.378;2022-07-18T04:00:59;7.00;;;3.20;;
58784;SDS011;44557;51.862;19.378;2022-07-18T04:02:00;7.60;;;2.80;;
58784;SDS011;44557;51.862;19.378;2022-07-18T04:03:02;6.40;;;3.10;;
58784;SDS011;44557;51.862;19.378;2022-07-18T04:04:03;6.80;;;3.00;;
58784;SDS011;44557;51.862;19.378;2022-07-18T04:05:05;6.90;;;2.80;;
58784;SDS011;44557;51.862;19.378;2022-07-18T04:06:07;8.30;;;3.30;;
58784;SDS011;44557;51.862;19.378;2022-07-18T04:07:09;7.50;;;3.10;;
58784;SDS011;44557;51.862;19.378;2022-07-18T04:08:10;7.10;;;3.40;;
58784;SDS011;44557;51.862;19.378;2022-07-18T04:09:12;7.20;;;3.30;;
58784;SDS011;44557;51.862;19.378;2022-07-18T04:10:14;6.50;;;3.10;;
58784;SDS011;44557;51.862;19.378;2022-07-18T04:11:15;7.40;;;3.10;;
58784;SDS011;44557;51.862;19.378;2022-07-18T04:12:17;7.40;;;3.40;;
58784;SDS011;44557;51.862;19.378;2022-07-18T04:13:18;10.10;;;3.90;;
58784;SDS011;44557;51.862;19.378;2022-07-18T04:14:20;8.10;;;3.20;;
58784;SDS011;44557;51.862;19.378;2022-07-18T04:15:24;7.40;;;3.60;;
58784;SDS011;44557;51.862;19.378;2022-07-18T04:16:28;7.20;;;3.40;;
58784;SDS011;44557;51.862;19.378;2022-07-18T04:17:29;7.40;;;3.70;;
58784;SDS011;44557;51.862;19.378;2022-07-18T04:18:31;8.50;;;3.50;;
58784;SDS011;44557;51.862;19.378;2022-07-18T04:19:32;8.00;;;3.50;;
58784;SDS011;44557;51.862;19.378;2022-07-18T04:20:36;7.70;;;3.30;;
58784;SDS011;44557;51.862;19.378;2022-07-18T04:21:40;6.40;;;3.20;;
58784;SDS011;44557;51.862;19.378;2022-07-18T04:22:45;9.20;;;3.70;;
58784;SDS011;44557;51.862;19.378;2022-07-18T04:23:54;6.90;;;3.10;;
58784;SDS011;44557;51.862;19.378;2022-07-18T04:24:56;5.80;;;3.10;;
58784;SDS011;44557;51.862;19.378;2022-07-18T04:25:58;7.60;;;3.30;;
58784;SDS011;44557;51.862;19.378;2022-07-18T04:26:59;6.60;;;3.60;;
58784;SDS011;44557;51.862;19.378;2022-07-18T04:28:01;9.60;;;3.60;;
58784;SDS011;44557;51.862;19.378;2022-07-18T04:29:03;7.60;;;2.90;;
58784;SDS011;44557;51.862;19.378;2022-07-18T04:30:05;5.90;;;3.00;;
58784;SDS011;44557;51.862;19.378;2022-07-18T04:31:08;6.50;;;3.10;;
58784;SDS011;44557;51.862;19.378;2022-07-18T04:32:10;6.10;;;3.30;;
58784;SDS011;44557;51.862;19.378;2022-07-18T04:33:11;7.70;;;3.10;;
58784;SDS011;44557;51.862;19.378;2022-07-18T04:34:13;9.20;;;3.30;;
58784;SDS011;44557;51.862;19.378;2022-07-18T04:35:15;6.60;;;3.00;;
58784;SDS011;44557;51.862;19.378;2022-07-18T04:36:16;7.10;;;3.30;;
58784;SDS011;44557;51.862;19.378;2022-07-18T04:37:19;8.10;;;3.20;;
58784;SDS011;44557;51.862;19.378;2022-07-18T04:38:20;6.70;;;2.60;;
58784;SDS011;44557;51.862;19.378;2022-07-18T04:39:22;6.80;;;2.90;;
58784;SDS011;44557;51.862;19.378;2022-07-18T04:40:24;9.40;;;3.20;;
58784;SDS011;44557;51.862;19.378;2022-07-18T04:41:25;5.20;;;2.60;;
58784;SDS011;44557;51.862;19.378;2022-07-18T04:42:27;7.70;;;2.80;;
58784;SDS011;44557;51.862;19.378;2022-07-18T04:43:28;8.30;;;3.10;;
58784;SDS011;44557;51.862;19.378;2022-07-18T04:44:31;7.10;;;3.50;;
58784;SDS011;44557;51.862;19.378;2022-07-18T04:45:33;7.40;;;3.10;;
58784;SDS011;44557;51.862;19.378;2022-07-18T04:46:36;6.40;;;3.00;;
58784;SDS011;44557;51.862;19.378;2022-07-18T04:47:37;7.10;;;3.70;;
58784;SDS011;44557;51.862;19.378;2022-07-18T04:48:39;7.40;;;3.50;;
58784;SDS011;44557;51.862;19.378;2022-07-18T04:49:40;7.70;;;3.50;;
58784;SDS011;44557;51.862;19.378;2022-07-18T04:50:42;5.50;;;3.00;;
58784;SDS011;44557;51.862;19.378;2022-07-18T04:51:43;7.30;;;3.20;;
58784;SDS011;44557;51.862;19.378;2022-07-18T04:52:45;10.20;;;3.60;;
58784;SDS011;44557;51.862;19.378;2022-07-18T04:53:48;6.00;;;2.90;;
58784;SDS011;44557;51.862;19.378;2022-07-18T04:54:49;6.40;;;3.20;;
58784;SDS011;44557;51.862;19.378;2022-07-18T04:55:51;8.80;;;3.30;;
58784;SDS011;44557;51.862;19.378;2022-07-18T04:56:53;8.20;;;3.00;;
58784;SDS011;44557;51.862;19.378;2022-07-18T04:57:55;9.00;;;3.40;;
58784;SDS011;44557;51.862;19.378;2022-07-18T04:58:56;7.40;;;3.50;;
58784;SDS011;44557;51.862;19.378;2022-07-18T04:59:58;8.40;;;2.90;;
58784;SDS011;44557;51.862;19.378;2022-07-18T05:00:59;8.00;;;3.40;;
58784;SDS011;44557;51.862;19.378;2022-07-18T05:02:01;7.30;;;3.30;;
58784;SDS011;44557;51.862;19.378;2022-07-18T05:03:02;7.20;;;3.20;;
58784;SDS011;44557;51.862;19.378;2022-07-18T05:04:04;7.50;;;3.60;;
58784;SDS011;44557;51.862;19.378;2022-07-18T05:05:05;10.20;;;3.40;;
58784;SDS011;44557;51.862;19.378;2022-07-18T05:06:07;6.90;;;3.20;;
58784;SDS011;44557;51.862;19.378;2022-07-18T05:07:09;8.10;;;3.30;;
58784;SDS011;44557;51.862;19.378;2022-07-18T05:08:11;11.80;;;3.60;;
58784;SDS011;44557;51.862;19.378;2022-07-18T05:09:13;10.00;;;3.70;;
58784;SDS011;44557;51.862;19.378;2022-07-18T05:10:15;9.70;;;3.20;;
58784;SDS011;44557;51.862;19.378;2022-07-18T05:11:19;9.70;;;3.30;;
58784;SDS011;44557;51.862;19.378;2022-07-18T05:12:20;10.50;;;3.20;;
58784;SDS011;44557;51.862;19.378;2022-07-18T05:13:24;10.00;;;3.90;;
58784;SDS011;44557;51.862;19.378;2022-07-18T05:14:26;10.90;;;3.60;;
58784;SDS011;44557;51.862;19.378;2022-07-18T05:15:27;10.20;;;3.60;;
58784;SDS011;44557;51.862;19.378;2022-07-18T05:16:29;14.30;;;3.50;;
58784;SDS011;44557;51.862;19.378;2022-07-18T05:17:31;17.20;;;4.00;;
58784;SDS011;44557;51.862;19.378;2022-07-18T05:18:32;19.10;;;3.80;;
58784;SDS011;44557;51.862;19.378;2022-07-18T05:19:34;10.30;;;3.50;;
58784;SDS011;44557;51.862;19.378;2022-07-18T05:20:35;14.00;;;4.70;;
58784;SDS011;44557;51.862;19.378;2022-07-18T05:21:37;13.40;;;3.60;;
58784;SDS011;44557;51.862;19.378;2022-07-18T05:22:39;12.40;;;3.70;;
58784;SDS011;44557;51.862;19.378;2022-07-18T05:23:41;8.60;;;3.40;;
58784;SDS011;44557;51.862;19.378;2022-07-18T05:24:42;14.00;;;4.10;;
58784;SDS011;44557;51.862;19.378;2022-07-18T05:25:44;14.80;;;3.90;;
58784;SDS011;44557;51.862;19.378;2022-07-18T05:26:46;17.50;;;4.10;;
58784;SDS011;44557;51.862;19.378;2022-07-18T05:27:47;14.80;;;4.10;;
58784;SDS011;44557;51.862;19.378;2022-07-18T05:28:49;15.30;;;4.70;;
58784;SDS011;44557;51.862;19.378;2022-07-18T05:29:51;14.60;;;4.00;;
58784;SDS011;44557;51.862;19.378;2022-07-18T05:30:52;11.10;;;3.70;;
58784;SDS011;44557;51.862;19.378;2022-07-18T05:31:55;18.10;;;4.70;;
58784;SDS011;44557;51.862;19.378;2022-07-18T05:32:57;20.30;;;4.20;;
58784;SDS011;44557;51.862;19.378;2022-07-18T05:33:59;17.30;;;4.00;;
58784;SDS011;44557;51.862;19.378;2022-07-18T05:35:00;23.20;;;4.90;;
58784;SDS011;44557;51.862;19.378;2022-07-18T05:36:03;17.40;;;4.60;;
58784;SDS011;44557;51.862;19.378;2022-07-18T05:37:05;23.90;;;4.50;;
58784;SDS011;44557;51.862;19.378;2022-07-18T05:38:07;27.90;;;4.70;;
58784;SDS011;44557;51.862;19.378;2022-07-18T05:39:08;25.70;;;4.40;;
58784;SDS011;44557;51.862;19.378;2022-07-18T05:40:11;25.70;;;5.30;;
58784;SDS011;44557;51.862;19.378;2022-07-18T05:41:15;25.50;;;4.40;;
58784;SDS011;44557;51.862;19.378;2022-07-18T05:42:17;22.80;;;5.10;;
58784;SDS011;44557;51.862;19.378;2022-07-18T05:43:19;24.30;;;4.90;;
58784;SDS011;44557;51.862;19.378;2022-07-18T05:44:21;19.40;;;4.50;;
58784;SDS011;44557;51.862;19.378;2022-07-18T05:45:23;17.10;;;4.40;;
58784;SDS011;44557;51.862;19.378;2022-07-18T05:46:25;21.50;;;4.30;;
58784;SDS011;44557;51.862;19.378;2022-07-18T05:47:27;12.50;;;4.30;;
58784;SDS011;44557;51.862;19.378;2022-07-18T05:48:28;18.80;;;4.10;;
58784;SDS011;44557;51.862;19.378;2022-07-18T05:49:30;18.30;;;4.10;;
58784;SDS011;44557;51.862;19.378;2022-07-18T05:50:31;14.20;;;4.00;;
58784;SDS011;44557;51.862;19.378;2022-07-18T05:51:33;13.30;;;4.20;;
58784;SDS011;44557;51.862;19.378;2022-07-18T05:52:34;19.80;;;4.40;;
58784;SDS011;44557;51.862;19.378;2022-07-18T05:53:36;9.20;;;3.60;;
58784;SDS011;44557;51.862;19.378;2022-07-18T05:54:38;14.30;;;3.80;;
58784;SDS011;44557;51.862;19.378;2022-07-18T05:55:39;20.40;;;3.70;;
58784;SDS011;44557;51.862;19.378;2022-07-18T05:56:41;11.20;;;3.60;;
58784;SDS011;44557;51.862;19.378;2022-07-18T05:57:43;13.20;;;4.30;;
58784;SDS011;44557;51.862;19.378;2022-07-18T05:58:44;15.40;;;3.80;;
58784;SDS011;44557;51.862;19.378;2022-07-18T05:59:46;9.10;;;3.80;;
58784;SDS011;44557;51.862;19.378;2022-07-18T06:00:47;19.70;;;4.30;;
58784;SDS011;44557;51.862;19.378;2022-07-18T06:01:50;26.70;;;5.00;;
58784;SDS011;44557;51.862;19.378;2022-07-18T06:02:52;25.60;;;4.40;;
58784;SDS011;44557;51.862;19.378;2022-07-18T06:03:54;21.80;;;5.00;;
58784;SDS011;44557;51.862;19.378;2022-07-18T06:04:56;31.40;;;5.00;;
58784;SDS011;44557;51.862;19.378;2022-07-18T06:05:58;17.40;;;3.90;;
58784;SDS011;44557;51.862;19.378;2022-07-18T06:07:00;22.20;;;4.30;;
58784;SDS011;44557;51.862;19.378;2022-07-18T06:08:01;24.00;;;4.50;;